createdAt,value
2018-02-20T00:01:24.398Z,33.60
2018-02-20T00:03:51.855Z,28.00
2018-02-20T00:06:19.314Z,29.53
2018-02-20T00:08:46.767Z,30.03
2018-02-20T00:11:14.221Z,33.30
2018-02-20T00:13:41.686Z,31.40
2018-02-20T00:16:09.167Z,30.83
2018-02-20T00:18:36.615Z,29.20
2018-02-20T00:21:04.077Z,31.97
2018-02-20T00:23:31.530Z,29.70
2018-02-20T00:25:58.990Z,32.00
2018-02-20T00:28:26.476Z,30.00
2018-02-20T00:30:54.698Z,31.17
2018-02-20T00:33:22.150Z,32.23
2018-02-20T00:35:49.608Z,29.73
2018-02-20T00:38:17.061Z,32.00
2018-02-20T00:40:44.522Z,30.60
2018-02-20T00:43:11.977Z,31.60
2018-02-20T00:45:39.434Z,32.10
2018-02-20T00:48:06.896Z,30.33
2018-02-20T00:50:34.354Z,32.20
2018-02-20T00:53:01.806Z,30.70
2018-02-20T00:55:29.280Z,29.47
2018-02-20T00:57:56.730Z,31.80
2018-02-20T01:00:24.201Z,29.93
2018-02-20T01:02:51.704Z,33.47
2018-02-20T01:05:19.162Z,30.70
2018-02-20T01:07:46.623Z,32.47
2018-02-20T01:10:14.082Z,29.70
2018-02-20T01:12:41.541Z,29.47
2018-02-20T01:15:08.997Z,30.30
2018-02-20T01:17:36.457Z,32.73
2018-02-20T01:20:04.012Z,31.17
2018-02-20T01:22:31.470Z,32.20
2018-02-20T01:24:58.932Z,31.83
2018-02-20T01:27:26.394Z,32.10
2018-02-20T01:29:53.861Z,33.17
2018-02-20T01:32:21.566Z,33.37
2018-02-20T01:34:49.032Z,33.33
2018-02-20T01:37:16.492Z,35.37
2018-02-20T01:39:43.949Z,31.70
2018-02-20T01:42:11.421Z,29.37
2018-02-20T01:44:38.873Z,31.70
2018-02-20T01:47:06.345Z,31.23
2018-02-20T01:49:33.798Z,30.63
2018-02-20T01:52:01.253Z,31.70
2018-02-20T01:54:28.701Z,32.87
2018-02-20T01:56:56.173Z,32.10
2018-02-20T01:59:23.617Z,33.40
2018-02-20T02:01:51.078Z,34.93
2018-02-20T02:04:18.538Z,33.60
2018-02-20T02:06:45.989Z,32.93
2018-02-20T02:09:13.452Z,33.77
2018-02-20T02:11:40.913Z,33.00
2018-02-20T02:14:08.361Z,30.07
2018-02-20T02:16:35.822Z,32.13
2018-02-20T02:19:03.282Z,31.97
2018-02-20T02:21:30.771Z,32.87
2018-02-20T02:23:58.222Z,33.97
2018-02-20T02:26:25.681Z,30.70
2018-02-20T02:28:53.194Z,35.73
2018-02-20T02:31:20.650Z,34.97
2018-02-20T02:33:48.110Z,33.40
2018-02-20T02:36:15.558Z,33.87
2018-02-20T02:38:43.021Z,35.13
2018-02-20T02:41:10.474Z,33.83
2018-02-20T02:43:37.935Z,34.20
2018-02-20T02:46:05.390Z,33.57
2018-02-20T02:48:32.846Z,33.40
2018-02-20T02:51:01.117Z,34.73
2018-02-20T02:53:28.593Z,32.87
2018-02-20T02:55:56.050Z,33.90
2018-02-20T02:58:23.513Z,34.27
2018-02-20T03:00:50.986Z,33.40
2018-02-20T03:03:18.442Z,35.07
2018-02-20T03:05:45.898Z,34.77
2018-02-20T03:08:13.385Z,31.93
2018-02-20T03:10:40.837Z,32.20
2018-02-20T03:13:08.293Z,33.83
2018-02-20T03:15:35.744Z,31.93
2018-02-20T03:18:03.201Z,34.13
2018-02-20T03:20:30.649Z,34.77
2018-02-20T03:22:58.106Z,34.23
2018-02-20T03:25:25.557Z,32.10
2018-02-20T03:27:53.018Z,34.67
2018-02-20T03:30:20.477Z,31.63
2018-02-20T03:32:47.941Z,32.67
2018-02-20T03:35:15.398Z,34.13
2018-02-20T03:37:42.862Z,34.60
2018-02-20T03:40:10.397Z,34.80
2018-02-20T03:42:37.869Z,36.83
2018-02-20T03:45:05.322Z,33.10
2018-02-20T03:47:32.804Z,30.63
2018-02-20T03:50:01.018Z,33.70
2018-02-20T03:52:28.482Z,32.97
2018-02-20T03:54:55.938Z,35.03
2018-02-20T03:57:23.391Z,36.70
2018-02-20T03:59:50.854Z,32.70
2018-02-20T04:02:18.306Z,34.50
2018-02-20T04:04:45.774Z,34.33
2018-02-20T04:07:13.229Z,35.80
2018-02-20T04:09:40.697Z,32.70
2018-02-20T04:12:08.931Z,32.90
2018-02-20T04:14:36.388Z,30.40
2018-02-20T04:17:03.862Z,32.30
2018-02-20T04:19:31.337Z,32.40
2018-02-20T04:21:58.797Z,33.10
2018-02-20T04:24:26.328Z,32.70
2018-02-20T04:26:53.782Z,30.10
2018-02-20T04:29:21.249Z,31.57
2018-02-20T04:31:49.553Z,31.10
2018-02-20T04:34:17.023Z,30.87
2018-02-20T04:36:44.534Z,33.43
2018-02-20T04:39:11.990Z,33.13
2018-02-20T04:41:39.446Z,31.70
2018-02-20T04:44:06.914Z,32.73
2018-02-20T04:46:34.377Z,32.37
2018-02-20T04:49:01.854Z,31.60
2018-02-20T04:51:29.329Z,29.00
2018-02-20T04:53:57.571Z,33.40
2018-02-20T04:56:25.030Z,31.47
2018-02-20T04:58:52.498Z,29.93
2018-02-20T05:01:19.975Z,32.90
2018-02-20T05:03:47.427Z,32.97
2018-02-20T05:06:14.877Z,34.20
2018-02-20T05:08:42.337Z,30.90
2018-02-20T05:11:10.557Z,32.97
2018-02-20T05:13:38.029Z,31.30
2018-02-20T05:16:05.477Z,31.07
2018-02-20T05:18:32.941Z,30.47
2018-02-20T05:21:00.417Z,32.00
2018-02-20T05:23:27.886Z,30.40
2018-02-20T05:25:55.343Z,29.57
2018-02-20T05:28:22.822Z,29.57
2018-02-20T05:30:51.038Z,32.43
2018-02-20T05:33:18.505Z,31.20
2018-02-20T05:35:45.952Z,31.93
2018-02-20T05:38:13.405Z,30.90
2018-02-20T05:40:40.865Z,30.10
2018-02-20T05:43:09.318Z,29.90
2018-02-20T05:45:36.773Z,31.47
2018-02-20T05:48:04.225Z,30.10
2018-02-20T05:50:31.686Z,30.37
2018-02-20T05:52:59.132Z,32.97
2018-02-20T05:55:26.585Z,33.40
2018-02-20T05:57:54.079Z,32.30
2018-02-20T06:00:21.491Z,29.27
2018-02-20T06:02:49.712Z,32.90
2018-02-20T06:05:17.189Z,33.33
2018-02-20T06:07:44.649Z,33.00
2018-02-20T06:10:12.105Z,32.07
2018-02-20T06:12:39.554Z,31.40
2018-02-20T06:15:07.033Z,31.47
2018-02-20T06:17:34.490Z,32.27
2018-02-20T06:20:01.949Z,32.57
2018-02-20T06:22:29.406Z,30.93
2018-02-20T06:24:56.857Z,31.03
2018-02-20T06:27:25.341Z,30.27
2018-02-20T06:29:52.880Z,27.87
2018-02-20T06:32:20.378Z,31.80
2018-02-20T06:34:48.597Z,29.50
2018-02-20T06:37:16.052Z,31.50
2018-02-20T06:39:43.510Z,31.17
2018-02-20T06:42:10.966Z,31.20
2018-02-20T06:44:38.426Z,31.00
2018-02-20T06:47:05.891Z,28.70
2018-02-20T06:49:34.132Z,30.83
2018-02-20T06:52:01.579Z,26.67
2018-02-20T06:54:29.029Z,28.03
2018-02-20T06:56:57.357Z,29.03
2018-02-20T06:59:24.820Z,26.40
2018-02-20T07:01:52.269Z,25.93
2018-02-20T07:04:19.746Z,26.97
2018-02-20T07:06:47.201Z,27.23
2018-02-20T07:09:14.647Z,29.40
2018-02-20T07:11:42.102Z,31.17
2018-02-20T07:14:09.553Z,27.63
2018-02-20T07:16:37.011Z,29.50
2018-02-20T07:19:04.496Z,30.50
2018-02-20T07:21:31.981Z,32.07
2018-02-20T07:23:59.430Z,30.80
2018-02-20T07:26:27.658Z,30.93
2018-02-20T07:28:55.110Z,28.20
2018-02-20T07:31:22.574Z,30.23
2018-02-20T07:33:50.024Z,28.10
2018-02-20T07:36:17.481Z,29.47
2018-02-20T07:38:44.942Z,29.67
2018-02-20T07:41:13.171Z,29.53
2018-02-20T07:43:40.617Z,29.43
2018-02-20T07:46:08.841Z,28.20
2018-02-20T07:48:36.296Z,29.63
2018-02-20T07:51:03.765Z,31.97
2018-02-20T07:53:31.234Z,31.90
2018-02-20T07:55:58.706Z,30.13
2018-02-20T07:58:26.149Z,32.87
2018-02-20T08:00:53.613Z,33.43
2018-02-20T08:03:21.064Z,34.20
2018-02-20T08:05:48.516Z,32.07
2018-02-20T08:08:15.976Z,31.43
2018-02-20T08:10:43.468Z,32.90
2018-02-20T08:13:10.950Z,30.40
2018-02-20T08:15:38.408Z,32.70
2018-02-20T08:18:05.858Z,29.47
2018-02-20T08:20:33.318Z,30.17
2018-02-20T08:23:00.774Z,31.50
2018-02-20T08:25:28.234Z,31.80
2018-02-20T08:27:55.690Z,32.77
2018-02-20T08:30:23.151Z,30.63
2018-02-20T08:32:50.610Z,30.93
2018-02-20T08:35:18.077Z,29.80
2018-02-20T08:37:45.532Z,31.47
2018-02-20T08:40:13.010Z,29.90
2018-02-20T08:42:40.456Z,30.20
2018-02-20T08:45:07.925Z,32.20
2018-02-20T08:47:35.385Z,32.00
2018-02-20T08:50:02.860Z,32.67
2018-02-20T08:52:31.109Z,28.13
2018-02-20T08:54:58.560Z,30.30
2018-02-20T08:57:26.017Z,32.00
2018-02-20T08:59:53.482Z,31.80
2018-02-20T09:02:20.946Z,33.47
2018-02-20T09:04:48.397Z,31.70
2018-02-20T09:07:15.864Z,30.50
2018-02-20T09:09:43.322Z,29.47
2018-02-20T09:12:10.782Z,29.53
2018-02-20T09:14:38.234Z,27.67
2018-02-20T09:17:05.693Z,27.47
2018-02-20T09:19:33.913Z,30.47
2018-02-20T09:22:01.378Z,29.83
2018-02-20T09:24:28.829Z,31.90
2018-02-20T09:26:56.283Z,30.37
2018-02-20T09:29:23.729Z,30.03
2018-02-20T09:31:51.532Z,31.70
2018-02-20T09:34:18.985Z,31.10
2018-02-20T09:36:46.445Z,32.13
2018-02-20T09:39:13.905Z,29.97
2018-02-20T09:41:41.360Z,30.93
2018-02-20T09:44:09.578Z,31.17
2018-02-20T09:46:38.505Z,30.33
2018-02-20T09:49:05.953Z,31.80
2018-02-20T09:51:33.410Z,29.93
2018-02-20T09:54:00.870Z,30.73
2018-02-20T09:56:28.333Z,30.93
2018-02-20T09:58:55.813Z,29.10
2018-02-20T10:01:23.278Z,31.27
2018-02-20T10:03:50.734Z,30.30
2018-02-20T10:06:18.190Z,28.60
2018-02-20T10:08:45.643Z,31.60
2018-02-20T10:11:13.094Z,31.90
2018-02-20T10:13:40.618Z,32.40
2018-02-20T10:16:08.059Z,33.77
2018-02-20T10:18:35.631Z,32.50
2018-02-20T10:21:03.081Z,30.50
2018-02-20T10:23:30.650Z,30.83
2018-02-20T10:25:58.099Z,32.90
2018-02-20T10:28:25.565Z,32.00
2018-02-20T10:30:53.048Z,31.60
2018-02-20T10:33:20.520Z,28.37
2018-02-20T10:35:48.034Z,29.00
2018-02-20T10:38:15.591Z,27.57
2018-02-20T10:40:43.042Z,29.10
2018-02-20T10:43:10.497Z,27.90
2018-02-20T10:45:37.944Z,26.80
2018-02-20T10:48:05.400Z,20.80
2018-02-20T10:50:32.852Z,20.03
2018-02-20T10:53:00.305Z,22.90
2018-02-20T10:55:28.530Z,22.23
2018-02-20T10:57:56.003Z,22.67
2018-02-20T11:00:23.462Z,23.17
2018-02-20T11:02:50.923Z,22.77
2018-02-20T11:05:18.418Z,22.13
2018-02-20T11:07:45.941Z,25.13
2018-02-20T11:10:13.414Z,21.23
2018-02-20T11:12:41.646Z,22.10
2018-02-20T11:15:09.110Z,21.80
2018-02-20T11:17:36.619Z,20.40
2018-02-20T11:20:04.090Z,19.73
2018-02-20T11:22:31.553Z,22.07
2018-02-20T11:24:59.417Z,20.40
2018-02-20T11:27:26.876Z,20.87
2018-02-20T11:29:54.328Z,27.03
2018-02-20T11:32:21.799Z,24.57
2018-02-20T11:34:49.244Z,24.10
2018-02-20T11:37:16.701Z,25.00
2018-02-20T11:39:44.165Z,28.90
2018-02-20T11:42:11.625Z,27.07
2018-02-20T11:44:39.084Z,24.97
2018-02-20T11:47:06.545Z,23.13
2018-02-20T11:49:34.006Z,20.00
2018-02-20T11:52:01.466Z,19.67
2018-02-20T11:54:28.921Z,21.00
2018-02-20T11:56:57.166Z,20.13
2018-02-20T11:59:24.622Z,19.77
2018-02-20T12:01:52.073Z,18.57
2018-02-20T12:04:19.533Z,23.20
2018-02-20T12:06:46.986Z,21.73
2018-02-20T12:09:14.445Z,21.83
2018-02-20T12:11:41.897Z,21.30
2018-02-20T12:14:09.359Z,26.10
2018-02-20T12:16:36.842Z,24.67
2018-02-20T12:19:04.274Z,23.77
2018-02-20T12:21:31.724Z,24.60
2018-02-20T12:23:59.185Z,24.80
2018-02-20T12:26:26.638Z,23.40
2018-02-20T12:28:54.098Z,22.90
2018-02-20T12:31:21.550Z,22.93
2018-02-20T12:33:49.006Z,23.23
2018-02-20T12:36:16.474Z,24.67
2018-02-20T12:38:43.930Z,24.40
2018-02-20T12:41:11.381Z,24.80
2018-02-20T12:43:38.860Z,27.00
2018-02-20T12:46:06.307Z,28.90
2018-02-20T12:48:33.773Z,30.23
2018-02-20T12:51:01.225Z,30.07
2018-02-20T12:53:28.718Z,31.07
2018-02-20T12:55:56.149Z,29.87
2018-02-20T12:58:23.606Z,30.77
2018-02-20T13:00:51.061Z,31.13
2018-02-20T13:03:19.404Z,34.50
2018-02-20T13:05:47.622Z,32.40
2018-02-20T13:08:15.077Z,32.23
2018-02-20T13:10:42.524Z,30.47
2018-02-20T13:13:10.001Z,31.30
2018-02-20T13:15:37.460Z,30.87
2018-02-20T13:18:04.920Z,32.23
2018-02-20T13:20:32.377Z,34.70
2018-02-20T13:22:59.830Z,31.80
2018-02-20T13:25:27.300Z,31.80
2018-02-20T13:27:54.747Z,32.20
2018-02-20T13:30:22.205Z,33.30
2018-02-20T13:32:49.653Z,31.17
2018-02-20T13:35:17.109Z,32.33
2018-02-20T13:37:44.566Z,32.90
2018-02-20T13:40:12.022Z,32.77
2018-02-20T13:42:39.476Z,31.97
2018-02-20T13:45:06.936Z,33.30
2018-02-20T13:47:34.393Z,32.93
2018-02-20T13:50:01.845Z,32.57
2018-02-20T13:52:29.306Z,31.50
2018-02-20T13:54:56.761Z,34.47
2018-02-20T13:57:24.213Z,31.20
2018-02-20T13:59:51.669Z,29.97
2018-02-20T14:02:19.125Z,29.50
2018-02-20T14:04:46.623Z,32.07
2018-02-20T14:07:14.046Z,30.23
2018-02-20T14:09:41.505Z,30.13
2018-02-20T14:12:08.952Z,32.83
2018-02-20T14:14:36.408Z,28.40
2018-02-20T14:17:03.877Z,29.77
2018-02-20T14:19:31.349Z,29.50
2018-02-20T14:21:58.789Z,30.00
2018-02-20T14:24:26.278Z,30.50
2018-02-20T14:26:54.505Z,26.60
2018-02-20T14:29:21.967Z,29.30
2018-02-20T14:31:49.425Z,29.57
2018-02-20T14:34:16.887Z,27.70
2018-02-20T14:36:44.344Z,28.63
2018-02-20T14:39:11.803Z,29.47
2018-02-20T14:41:39.969Z,29.00
2018-02-20T14:44:07.437Z,26.67
2018-02-20T14:46:34.889Z,30.77
2018-02-20T14:49:02.341Z,27.80
2018-02-20T14:51:29.801Z,26.57
2018-02-20T14:53:57.254Z,26.30
2018-02-20T14:56:24.740Z,23.40
2018-02-20T14:58:52.185Z,26.30
2018-02-20T15:01:21.233Z,26.10
2018-02-20T15:03:48.685Z,24.60
2018-02-20T15:06:16.141Z,26.23
2018-02-20T15:08:43.590Z,27.00
2018-02-20T15:11:11.053Z,27.40
2018-02-20T15:13:38.518Z,25.73
2018-02-20T15:16:05.969Z,28.30
2018-02-20T15:18:33.429Z,29.30
2018-02-20T15:21:00.898Z,24.00
2018-02-20T15:23:28.350Z,26.47
2018-02-20T15:25:55.810Z,25.77
2018-02-20T15:28:23.260Z,25.80
2018-02-20T15:30:50.721Z,25.50
2018-02-20T15:33:18.178Z,25.37
2018-02-20T15:35:45.629Z,23.93
2018-02-20T15:38:13.081Z,25.77
2018-02-20T15:40:40.545Z,26.50
2018-02-20T15:43:07.997Z,28.23
2018-02-20T15:45:35.458Z,24.90
2018-02-20T15:48:02.917Z,25.20
2018-02-20T15:50:30.375Z,27.17
2018-02-20T15:52:57.821Z,25.30
2018-02-20T15:55:25.282Z,28.87
2018-02-20T15:57:52.737Z,27.60
2018-02-20T16:00:20.202Z,29.73
2018-02-20T16:05:22.298Z,28.03
2018-02-20T16:07:49.738Z,27.53
2018-02-20T16:10:17.973Z,25.23
2018-02-20T16:12:46.185Z,25.90
2018-02-20T16:15:13.646Z,27.07
2018-02-20T16:17:41.097Z,27.63
2018-02-20T16:20:08.555Z,28.57
2018-02-20T16:22:36.005Z,29.47
2018-02-20T16:25:03.465Z,29.07
2018-02-20T16:27:30.931Z,29.23
2018-02-20T16:29:58.398Z,26.63
2018-02-20T16:32:25.852Z,24.27
2018-02-20T16:34:53.305Z,25.33
2018-02-20T16:37:20.765Z,23.00
2018-02-20T16:39:48.227Z,25.73
2018-02-20T16:42:15.742Z,27.37
2018-02-20T16:44:43.193Z,25.90
2018-02-20T16:47:10.661Z,25.83
2018-02-20T16:49:38.106Z,25.33
2018-02-20T16:52:05.781Z,25.20
2018-02-20T16:54:33.255Z,26.40
2018-02-20T16:57:00.742Z,25.10
2018-02-20T16:59:28.978Z,25.83
2018-02-20T17:01:57.539Z,26.80
2018-02-20T17:04:24.985Z,25.33
2018-02-20T17:06:52.482Z,26.83
2018-02-20T17:09:19.941Z,28.63
2018-02-20T17:11:47.404Z,25.07
2018-02-20T17:14:14.853Z,26.80
2018-02-20T17:16:42.322Z,27.97
2018-02-20T17:19:09.774Z,27.20
2018-02-20T17:21:37.316Z,27.40
2018-02-20T17:24:04.677Z,27.10
2018-02-20T17:26:32.145Z,26.87
2018-02-20T17:29:00.371Z,25.70
2018-02-20T17:31:28.593Z,28.17
2018-02-20T17:33:56.433Z,27.90
2018-02-20T17:36:23.886Z,26.87
2018-02-20T17:38:51.342Z,29.53
2018-02-20T17:41:18.808Z,31.20
2018-02-20T17:43:46.293Z,30.00
2018-02-20T17:46:13.757Z,27.10
2018-02-20T17:48:41.209Z,29.43
2018-02-20T17:51:08.671Z,30.93
2018-02-20T17:53:36.138Z,28.10
2018-02-20T17:56:03.594Z,27.90
2018-02-20T17:58:31.061Z,29.70
2018-02-20T18:00:58.524Z,29.87
2018-02-20T18:03:26.746Z,28.10
2018-02-20T18:05:54.214Z,29.00
2018-02-20T18:08:21.678Z,32.03
2018-02-20T18:10:49.122Z,30.50
2018-02-20T18:13:17.347Z,30.33
2018-02-20T18:15:45.578Z,29.47
2018-02-20T18:18:13.042Z,31.37
2018-02-20T18:20:40.505Z,28.60
2018-02-20T18:23:07.961Z,32.97
2018-02-20T18:25:35.478Z,30.20
2018-02-20T18:28:02.926Z,30.33
2018-02-20T18:30:30.382Z,31.00
2018-02-20T18:32:57.839Z,29.40
2018-02-20T18:35:25.293Z,28.77
2018-02-20T18:37:52.759Z,30.90
2018-02-20T18:40:20.216Z,30.53
2018-02-20T18:42:47.677Z,30.33
2018-02-20T18:45:15.135Z,31.47
2018-02-20T18:47:42.588Z,30.70
2018-02-20T18:50:10.049Z,31.27
2018-02-20T18:52:37.517Z,32.10
2018-02-20T18:55:04.961Z,30.40
2018-02-20T18:57:32.418Z,30.77
2018-02-20T18:59:59.877Z,30.60
2018-02-20T19:02:27.346Z,31.43
2018-02-20T19:04:54.809Z,31.37
2018-02-20T19:07:22.266Z,32.07
2018-02-20T19:09:49.736Z,28.57
2018-02-20T19:12:17.193Z,31.40
2018-02-20T19:14:44.654Z,31.10
2018-02-20T19:17:12.109Z,31.57
2018-02-20T19:19:39.569Z,29.73
2018-02-20T19:22:07.814Z,31.00
2018-02-20T19:24:35.311Z,32.27
2018-02-20T19:27:02.761Z,30.90
2018-02-20T19:29:30.226Z,31.80
2018-02-20T19:31:57.694Z,29.67
2018-02-20T19:34:26.000Z,32.50
2018-02-20T19:36:53.457Z,34.27
2018-02-20T19:39:21.429Z,31.90
2018-02-20T19:41:48.889Z,33.90
2018-02-20T19:44:16.346Z,33.10
2018-02-20T19:46:43.802Z,34.93
2018-02-20T19:49:11.274Z,33.60
2018-02-20T19:51:38.769Z,35.13
2018-02-20T19:54:06.243Z,32.23
2018-02-20T19:56:34.460Z,34.17
2018-02-20T19:59:01.926Z,33.80
2018-02-20T20:01:29.678Z,34.20
2018-02-20T20:03:57.129Z,34.70
2018-02-20T20:06:24.579Z,36.77
2018-02-20T20:08:52.061Z,33.20
2018-02-20T20:11:20.002Z,35.67
2018-02-20T20:13:47.457Z,33.03
2018-02-20T20:16:14.940Z,33.93
2018-02-20T20:18:42.418Z,33.60
2018-02-20T20:21:09.877Z,34.70
2018-02-20T20:23:37.361Z,35.30
2018-02-20T20:26:04.822Z,36.90
2018-02-20T20:28:32.293Z,34.70
2018-02-20T20:30:59.745Z,33.23
2018-02-20T20:33:27.215Z,35.63
2018-02-20T20:35:54.674Z,33.47
2018-02-20T20:38:22.136Z,35.03
2018-02-20T20:40:49.586Z,33.10
2018-02-20T20:43:17.041Z,36.57
2018-02-20T20:45:44.501Z,36.67
2018-02-20T20:48:11.965Z,34.23
2018-02-20T20:50:39.423Z,35.80
2018-02-20T20:53:07.897Z,34.87
2018-02-20T20:55:35.357Z,33.67
2018-02-20T20:58:02.840Z,36.07
2018-02-20T21:00:30.301Z,35.10
2018-02-20T21:02:57.774Z,35.70
2018-02-20T21:05:25.282Z,33.03
2018-02-20T21:07:52.739Z,34.67
2018-02-20T21:10:20.191Z,33.17
2018-02-20T21:12:47.652Z,33.70
2018-02-20T21:15:15.120Z,33.27
2018-02-20T21:17:42.569Z,36.30
2018-02-20T21:20:10.035Z,31.33
2018-02-20T21:22:37.492Z,34.50
2018-02-20T21:25:04.953Z,34.37
2018-02-20T21:27:32.425Z,36.70
2018-02-20T21:29:59.893Z,36.63
2018-02-20T21:32:27.357Z,35.30
2018-02-20T21:34:54.813Z,39.10
2018-02-20T21:37:23.050Z,35.90
2018-02-20T21:39:50.523Z,33.17
2018-02-20T21:42:17.986Z,37.00
2018-02-20T21:44:45.442Z,38.10
2018-02-20T21:47:12.898Z,34.70
2018-02-20T21:49:40.355Z,35.67
2018-02-20T21:52:07.817Z,36.20
2018-02-20T21:54:35.290Z,39.90
2018-02-20T21:57:03.508Z,38.40
2018-02-20T21:59:31.057Z,37.50
2018-02-20T22:01:58.506Z,42.17
2018-02-20T22:04:26.176Z,63.10
2018-02-20T22:06:53.621Z,36.80
2018-02-20T22:09:21.098Z,36.30
2018-02-20T22:11:48.696Z,38.77
2018-02-20T22:14:16.138Z,35.23
2018-02-20T22:16:43.586Z,38.70
2018-02-20T22:19:11.059Z,36.87
2018-02-20T22:21:38.879Z,35.40
2018-02-20T22:24:06.338Z,35.63
2018-02-20T22:26:33.821Z,39.53
2018-02-20T22:29:01.282Z,36.83
2018-02-20T22:31:28.744Z,40.20
2018-02-20T22:33:56.225Z,35.77
2018-02-20T22:36:23.677Z,34.33
2018-02-20T22:38:51.137Z,36.10
2018-02-20T22:41:18.593Z,34.37
2018-02-20T22:43:46.053Z,37.13
2018-02-20T22:46:13.514Z,37.47
2018-02-20T22:48:41.747Z,35.30
2018-02-20T22:51:09.201Z,36.90
2018-02-20T22:53:36.674Z,34.67
2018-02-20T22:56:04.134Z,37.03
2018-02-20T22:58:31.589Z,34.47
2018-02-20T23:00:59.044Z,34.50
2018-02-20T23:03:26.505Z,34.20
2018-02-20T23:05:53.990Z,35.70
2018-02-20T23:08:22.225Z,33.73
2018-02-20T23:10:49.686Z,36.30
2018-02-20T23:13:17.140Z,33.20
2018-02-20T23:15:44.597Z,34.40
2018-02-20T23:18:12.054Z,33.30
2018-02-20T23:20:39.513Z,34.33
2018-02-20T23:23:06.974Z,32.77
2018-02-20T23:25:34.442Z,34.97
2018-02-20T23:28:01.939Z,34.63
2018-02-20T23:30:29.775Z,33.60
2018-02-20T23:32:57.225Z,34.90
2018-02-20T23:35:24.687Z,32.97
2018-02-20T23:37:52.145Z,33.47
2018-02-20T23:40:20.381Z,33.63
2018-02-20T23:42:47.837Z,34.43
2018-02-20T23:45:15.324Z,33.73
2018-02-20T23:47:42.780Z,34.93
2018-02-20T23:50:10.249Z,33.27
2018-02-20T23:52:37.717Z,33.73
2018-02-20T23:55:05.942Z,33.20
2018-02-20T23:57:33.397Z,34.83
